Time;durP1;ratioP1;P1;durP2;ratioP2;P2;SDS_P1;SDS_P2;PMS_P1;PMS_P2;Temp;Humidity;BMP_temperature;BMP_pressure;BME280_temperature;BME280_humidity;BME280_pressure;Samples;Min_cycle;Max_cycle;Signal;HPM_P1;HPM_P2
2024/04/05 00:02:19;;;;;;;2.25;1.33;;;18.70;90.90;;;;;;4975719;28;20035;-34
2024/04/05 00:04:45;;;;;;;1.95;1.10;;;18.60;90.90;;;;;;4975711;28;20031;-34
2024/04/05 00:07:12;;;;;;;1.25;0.93;;;18.70;90.90;;;;;;4975114;28;20031;-35
2024/04/05 00:09:39;;;;;;;0.90;0.70;;;18.60;90.90;;;;;;4975712;28;20085;-34
2024/04/05 00:12:06;;;;;;;1.35;0.90;;;18.70;90.90;;;;;;4975574;28;20085;-35
2024/04/05 00:14:31;;;;;;;1.90;0.77;;;18.70;90.90;;;;;;4975304;28;20478;-35
2024/04/05 00:16:57;;;;;;;1.40;0.80;;;18.60;90.90;;;;;;4975549;28;20077;-35
2024/04/05 00:19:23;;;;;;;1.10;0.77;;;18.60;90.90;;;;;;4974462;28;20117;-35
2024/04/05 00:21:48;;;;;;;0.98;0.77;;;18.60;90.90;;;;;;4974208;28;20042;-35
2024/04/05 00:24:14;;;;;;;1.90;0.90;;;18.60;90.90;;;;;;4972365;28;20038;-35
2024/04/05 00:26:39;;;;;;;1.38;0.90;;;18.60;90.90;;;;;;4974556;28;20023;-34
2024/04/05 00:29:06;;;;;;;1.40;0.88;;;18.60;90.90;;;;;;4974411;28;20035;-35
2024/04/05 00:31:31;;;;;;;1.65;0.80;;;18.60;90.90;;;;;;4974174;28;20023;-34
2024/04/05 00:33:57;;;;;;;2.08;1.00;;;18.60;90.90;;;;;;4974390;28;20110;-36
2024/04/05 00:36:22;;;;;;;0.95;0.60;;;18.60;90.90;;;;;;4974310;28;20045;-35
2024/04/05 00:38:49;;;;;;;1.35;0.70;;;18.60;90.90;;;;;;4974059;28;20031;-35
2024/04/05 00:41:15;;;;;;;1.30;0.70;;;18.60;91.30;;;;;;4972652;28;20022;-32
2024/04/05 00:43:42;;;;;;;1.10;0.77;;;18.60;90.90;;;;;;4972576;28;20081;-33
2024/04/05 00:46:07;;;;;;;1.52;0.80;;;18.60;90.90;;;;;;4972494;28;20045;-34
2024/04/05 00:48:34;;;;;;;1.83;1.00;;;18.60;90.90;;;;;;4972404;28;20490;-34
2024/04/05 00:50:59;;;;;;;1.30;0.60;;;18.60;90.90;;;;;;4972640;28;20114;-34
2024/04/05 00:53:31;;;;;;;1.08;0.77;;;18.60;90.90;;;;;;4972394;28;20043;-32
2024/04/05 00:55:59;;;;;;;1.10;0.80;;;18.60;90.90;;;;;;4971194;28;20081;-34
2024/04/05 00:58:25;;;;;;;1.27;0.85;;;18.60;90.90;;;;;;4972467;28;20034;-33
2024/04/05 01:00:51;;;;;;;1.35;0.80;;;18.60;91.00;;;;;;4972236;28;20081;-34
2024/04/05 01:03:17;;;;;;;1.00;0.70;;;18.60;90.90;;;;;;4972319;28;20502;-34
2024/04/05 01:05:44;;;;;;;1.08;0.77;;;18.60;91.00;;;;;;4971028;28;20038;-33
2024/04/05 01:08:11;;;;;;;1.20;0.63;;;18.60;91.00;;;;;;4972082;28;20510;-33
2024/04/05 01:10:37;;;;;;;1.40;0.73;;;18.60;91.00;;;;;;4972347;28;20505;-34
2024/04/05 01:13:05;;;;;;;1.00;0.82;;;18.60;91.00;;;;;;4972574;28;20031;-32
2024/04/05 01:15:32;;;;;;;0.88;0.60;;;18.60;91.00;;;;;;4972411;28;20019;-35
2024/04/05 01:17:59;;;;;;;0.90;0.60;;;18.60;91.00;;;;;;4930975;28;1198154;-34
2024/04/05 01:20:29;;;;;;;0.80;0.60;;;18.60;91.00;;;;;;4972721;28;20101;-34
2024/04/05 01:22:56;;;;;;;1.02;0.70;;;18.60;91.00;;;;;;4973180;28;20022;-34
2024/04/05 01:25:23;;;;;;;1.27;0.80;;;18.60;91.00;;;;;;4973126;28;20031;-34
2024/04/05 01:27:48;;;;;;;1.00;0.80;;;18.60;91.00;;;;;;4973449;28;20350;-33
2024/04/05 01:30:15;;;;;;;0.75;0.65;;;18.60;91.00;;;;;;4973084;28;20027;-34
2024/04/05 01:32:48;;;;;;;0.90;0.60;;;18.60;91.00;;;;;;4973544;28;20033;-34
2024/04/05 01:35:13;;;;;;;0.95;0.70;;;18.60;91.00;;;;;;4973164;28;20094;-34
2024/04/05 01:37:39;;;;;;;1.35;0.90;;;18.60;91.00;;;;;;4971624;28;20113;-34
2024/04/05 01:40:05;;;;;;;1.30;0.80;;;18.60;91.00;;;;;;4972964;28;20426;-33
2024/04/05 01:42:30;;;;;;;1.25;0.73;;;18.60;91.00;;;;;;4972954;28;20027;-33
2024/04/05 01:44:56;;;;;;;0.85;0.60;;;18.60;91.00;;;;;;4973197;28;20035;-33
2024/04/05 01:47:22;;;;;;;0.93;0.70;;;18.60;91.00;;;;;;4972865;28;20035;-35
2024/04/05 01:49:47;;;;;;;1.63;0.80;;;18.60;91.00;;;;;;4972949;28;20094;-35
2024/04/05 01:52:13;;;;;;;1.10;0.70;;;18.50;91.00;;;;;;4972848;28;20089;-34
2024/04/05 01:54:38;;;;;;;1.00;0.70;;;18.50;91.00;;;;;;4972887;28;20041;-35
2024/04/05 01:57:04;;;;;;;1.45;0.80;;;18.50;91.00;;;;;;4972839;28;20026;-34
2024/04/05 01:59:30;;;;;;;0.55;0.43;;;18.60;91.00;;;;;;4972791;28;20070;-35
2024/04/05 02:01:55;;;;;;;0.73;0.55;;;18.60;91.10;;;;;;4972789;28;20447;-36
2024/04/05 02:04:21;;;;;;;1.00;0.60;;;18.60;91.00;;;;;;4973018;28;20042;-34
2024/04/05 02:06:46;;;;;;;1.23;0.80;;;18.50;91.00;;;;;;4972958;28;20494;-35
2024/04/05 02:09:12;;;;;;;1.23;0.70;;;18.50;91.00;;;;;;4973107;28;20146;-35
2024/04/05 02:11:37;;;;;;;0.70;0.52;;;18.50;91.00;;;;;;4973303;28;20502;-36
2024/04/05 02:14:03;;;;;;;1.63;0.60;;;18.50;91.00;;;;;;4974179;28;20031;-34
2024/04/05 02:16:29;;;;;;;1.77;0.88;;;18.50;91.00;;;;;;4979130;28;20031;-33
2024/04/05 02:18:54;;;;;;;0.95;0.57;;;18.50;91.10;;;;;;5017859;23;20049;-32
2024/04/05 02:21:21;;;;;;;2.05;0.80;;;18.50;91.10;;;;;;5009912;28;20026;-32
2024/04/05 02:23:47;;;;;;;2.00;0.63;;;18.50;91.00;;;;;;5011585;28;20037;-32
2024/04/05 02:26:13;;;;;;;1.20;0.70;;;18.50;91.00;;;;;;5011871;28;20026;-31
2024/04/05 02:28:38;;;;;;;1.02;0.68;;;18.50;91.10;;;;;;5011481;28;20034;-32
2024/04/05 02:31:08;;;;;;;1.02;0.70;;;18.50;91.00;;;;;;5013802;28;20064;-33
2024/04/05 02:33:33;;;;;;;0.80;0.50;;;18.50;91.00;;;;;;5015160;28;20029;-32
2024/04/05 02:36:00;;;;;;;1.13;0.60;;;18.50;91.10;;;;;;5015488;28;20025;-32
2024/04/05 02:38:26;;;;;;;1.15;0.68;;;18.50;91.10;;;;;;5015156;28;20116;-32
2024/04/05 02:40:52;;;;;;;0.93;0.70;;;18.50;91.10;;;;;;5015798;28;20100;-32
2024/04/05 02:43:18;;;;;;;1.38;0.60;;;18.50;91.10;;;;;;5015618;28;20117;-31
2024/04/05 02:45:44;;;;;;;1.33;0.55;;;18.50;91.00;;;;;;5015684;28;20101;-31
2024/04/05 02:48:09;;;;;;;0.70;0.50;;;18.50;91.10;;;;;;5015324;28;20030;-32
2024/04/05 02:50:35;;;;;;;1.40;0.60;;;18.50;91.10;;;;;;5015102;28;20520;-31
2024/04/05 02:53:01;;;;;;;0.93;0.63;;;18.50;91.10;;;;;;5015495;28;20058;-32
2024/04/05 02:55:26;;;;;;;0.45;0.40;;;18.50;91.10;;;;;;5014945;28;20097;-32
2024/04/05 02:57:52;;;;;;;1.20;0.52;;;18.50;91.10;;;;;;5015354;28;20038;-31
2024/04/05 03:00:18;;;;;;;0.80;0.60;;;18.50;91.10;;;;;;5015280;28;20025;-32
2024/04/05 03:02:43;;;;;;;1.58;0.80;;;18.50;91.10;;;;;;5014920;28;20026;-32
2024/04/05 03:05:11;;;;;;;1.23;0.60;;;18.50;91.10;;;;;;5015322;28;20420;-32
2024/04/05 03:07:36;;;;;;;0.90;0.50;;;18.40;91.10;;;;;;5014962;28;20148;-31
2024/04/05 03:10:02;;;;;;;0.55;0.40;;;18.50;91.20;;;;;;5015255;28;20072;-32
2024/04/05 03:12:28;;;;;;;1.15;0.50;;;18.50;91.20;;;;;;5015875;28;20100;-31
2024/04/05 03:14:54;;;;;;;1.02;0.60;;;18.50;91.20;;;;;;5014349;28;20061;-32
2024/04/05 03:17:19;;;;;;;1.55;0.65;;;18.50;91.20;;;;;;5014510;28;20092;-31
2024/04/05 03:19:45;;;;;;;0.90;0.60;;;18.50;91.20;;;;;;5014274;28;20038;-32
2024/04/05 03:22:11;;;;;;;0.90;0.70;;;18.50;91.20;;;;;;5014775;28;20025;-32
2024/04/05 03:24:36;;;;;;;1.00;0.60;;;18.50;91.20;;;;;;5014808;28;20029;-32
2024/04/05 03:27:02;;;;;;;1.70;0.70;;;18.50;91.20;;;;;;5014822;28;20109;-32
2024/04/05 03:29:27;;;;;;;0.98;0.55;;;18.50;91.20;;;;;;5014870;28;20049;-32
2024/04/05 03:31:53;;;;;;;1.58;0.60;;;18.40;91.20;;;;;;5014966;28;20386;-32
2024/04/05 03:34:19;;;;;;;0.65;0.38;;;18.40;91.20;;;;;;5014382;28;20058;-33
2024/04/05 03:36:44;;;;;;;0.88;0.38;;;18.50;91.20;;;;;;5015015;28;20045;-32
2024/04/05 03:39:10;;;;;;;0.63;0.50;;;18.50;91.20;;;;;;5014918;28;20030;-32
2024/04/05 03:41:36;;;;;;;0.80;0.40;;;18.50;91.20;;;;;;5013722;28;20121;-31
2024/04/05 03:44:02;;;;;;;0.65;0.50;;;18.50;91.20;;;;;;5014716;28;20504;-32
2024/04/05 03:46:32;;;;;;;0.93;0.55;;;18.50;91.20;;;;;;5014068;28;20105;-32
2024/04/05 03:48:58;;;;;;;0.85;0.60;;;18.50;91.20;;;;;;5013737;28;20025;-31
2024/04/05 03:51:24;;;;;;;1.30;0.70;;;18.40;91.20;;;;;;5014058;28;20033;-32
2024/04/05 03:53:49;;;;;;;0.70;0.50;;;18.40;91.20;;;;;;5014449;28;20030;-32
2024/04/05 03:56:15;;;;;;;1.00;0.57;;;18.40;91.20;;;;;;5014257;28;20053;-31
2024/04/05 03:58:40;;;;;;;1.55;0.82;;;18.40;91.20;;;;;;5014318;28;20029;-32
2024/04/05 04:01:07;;;;;;;0.90;0.60;;;18.40;91.20;;;;;;5014111;28;20041;-32
2024/04/05 04:03:33;;;;;;;0.82;0.60;;;18.40;91.20;;;;;;5013695;28;20034;-32
2024/04/05 04:05:58;;;;;;;1.17;0.60;;;18.40;91.20;;;;;;5015421;28;20558;-33
2024/04/05 04:08:24;;;;;;;1.17;0.75;;;18.40;91.20;;;;;;5013936;28;20034;-31
2024/04/05 04:10:51;;;;;;;1.05;0.63;;;18.40;91.30;;;;;;5013673;28;20060;-32
2024/04/05 04:13:16;;;;;;;0.90;0.57;;;18.40;91.30;;;;;;5014066;28;20030;-32
2024/04/05 04:15:42;;;;;;;1.38;0.60;;;18.40;91.30;;;;;;5013577;28;20028;-32
2024/04/05 04:18:08;;;;;;;1.05;0.57;;;18.40;91.30;;;;;;5013274;28;20472;-32
2024/04/05 04:20:34;;;;;;;0.90;0.60;;;18.40;91.30;;;;;;5014298;28;20017;-32
2024/04/05 04:23:00;;;;;;;0.60;0.45;;;18.40;91.30;;;;;;5014235;28;20091;-32
2024/04/05 04:25:25;;;;;;;0.98;0.52;;;18.40;91.30;;;;;;5013516;28;20034;-32
2024/04/05 04:27:52;;;;;;;1.63;0.70;;;18.40;91.30;;;;;;5013642;28;20030;-32
2024/04/05 04:30:17;;;;;;;0.95;0.60;;;18.40;91.30;;;;;;5013665;28;20050;-32
2024/04/05 04:32:43;;;;;;;1.75;0.80;;;18.40;91.30;;;;;;5013277;28;20065;-31
2024/04/05 04:35:09;;;;;;;0.75;0.50;;;18.40;91.30;;;;;;5013001;28;20484;-31
2024/04/05 04:37:35;;;;;;;1.85;0.50;;;18.40;91.30;;;;;;5014420;28;20161;-32
2024/04/05 04:40:00;;;;;;;0.65;0.45;;;18.40;91.30;;;;;;5015305;28;20065;-31
2024/04/05 04:42:26;;;;;;;1.20;0.50;;;18.40;91.30;;;;;;5015148;28;20144;-30
2024/04/05 04:44:54;;;;;;;1.10;0.60;;;18.40;91.30;;;;;;5013463;28;20366;-32
2024/04/05 04:47:20;;;;;;;1.05;0.63;;;18.40;91.30;;;;;;5012865;28;20025;-32
2024/04/05 04:49:45;;;;;;;0.70;0.40;;;18.40;91.30;;;;;;5013765;28;20080;-32
2024/04/05 04:52:11;;;;;;;0.80;0.50;;;18.40;91.40;;;;;;5012846;28;20045;-33
2024/04/05 04:54:36;;;;;;;0.95;0.60;;;18.40;91.70;;;;;;5013477;28;20033;-31
2024/04/05 04:57:02;;;;;;;1.27;0.70;;;18.40;91.40;;;;;;5013282;28;20025;-30
2024/04/05 04:59:28;;;;;;;0.80;0.50;;;18.30;91.40;;;;;;5012790;28;20477;-32
2024/04/05 05:01:56;;;;;;;1.10;0.60;;;18.40;91.40;;;;;;5013003;28;20061;-31
2024/04/05 05:04:22;;;;;;;0.73;0.50;;;18.40;91.40;;;;;;5013196;28;20105;-32
2024/04/05 05:06:48;;;;;;;1.65;0.50;;;18.40;91.40;;;;;;5012662;28;20064;-32
2024/04/05 05:09:15;;;;;;;1.17;0.70;;;18.30;91.40;;;;;;5012431;28;20045;-32
2024/04/05 05:11:42;;;;;;;0.95;0.57;;;18.30;91.40;;;;;;5012917;28;20026;-32
2024/04/05 05:14:07;;;;;;;1.00;0.60;;;18.30;91.40;;;;;;5013458;28;20022;-32
2024/04/05 05:16:33;;;;;;;0.50;0.35;;;18.40;91.40;;;;;;5013694;28;20029;-31
2024/04/05 05:18:58;;;;;;;1.13;0.60;;;18.40;91.40;;;;;;5012096;28;20037;-32
2024/04/05 05:21:24;;;;;;;1.10;0.50;;;18.40;91.50;;;;;;5012199;28;20034;-31
2024/04/05 05:23:50;;;;;;;1.77;0.50;;;18.40;91.40;;;;;;5013487;28;20053;-32
2024/04/05 05:26:15;;;;;;;1.42;0.68;;;18.40;91.50;;;;;;5012566;28;20093;-32
2024/04/05 05:28:41;;;;;;;1.60;0.60;;;18.30;91.50;;;;;;5012905;28;20392;-32
2024/04/05 05:31:06;;;;;;;1.30;0.60;;;18.40;91.50;;;;;;5012383;28;20041;-31
2024/04/05 05:33:32;;;;;;;2.45;0.50;;;18.40;91.50;;;;;;5012601;28;20029;-32
2024/04/05 05:35:58;;;;;;;1.55;0.70;;;18.40;91.50;;;;;;5013338;28;20432;-32
2024/04/05 05:38:24;;;;;;;1.08;0.70;;;18.30;91.50;;;;;;5012046;28;20386;-32
2024/04/05 05:40:49;;;;;;;0.70;0.35;;;18.30;91.50;;;;;;5012480;28;20072;-31
2024/04/05 05:43:15;;;;;;;1.52;0.70;;;18.30;91.50;;;;;;5013030;28;20077;-31
2024/04/05 05:45:41;;;;;;;0.57;0.38;;;18.30;91.50;;;;;;5012354;28;20034;-32
2024/04/05 05:48:07;;;;;;;0.80;0.50;;;18.30;91.50;;;;;;5012891;28;20120;-32
2024/04/05 05:50:32;;;;;;;1.08;0.50;;;18.30;91.50;;;;;;5013225;28;20053;-32
2024/04/05 05:52:58;;;;;;;1.02;0.40;;;18.30;91.50;;;;;;5012712;28;20060;-32
2024/04/05 05:55:24;;;;;;;0.60;0.40;;;18.30;91.50;;;;;;5012988;28;20058;-32
2024/04/05 05:57:50;;;;;;;1.30;0.68;;;18.30;91.50;;;;;;5012306;28;20029;-33
2024/04/05 06:00:17;;;;;;;1.02;0.60;;;18.30;91.50;;;;;;5012285;28;20025;-32
2024/04/05 06:02:43;;;;;;;0.80;0.40;;;18.30;91.50;;;;;;5012561;28;20050;-30
2024/04/05 06:05:10;;;;;;;1.60;0.45;;;18.30;91.50;;;;;;5012826;28;20029;-32
2024/04/05 06:07:36;;;;;;;0.70;0.47;;;18.30;91.40;;;;;;5015630;28;20030;-32
2024/04/05 06:10:03;;;;;;;1.25;0.40;;;18.30;91.40;;;;;;5016870;28;20026;-31
2024/04/05 06:12:29;;;;;;;0.82;0.50;;;18.30;91.40;;;;;;5015991;28;20026;-33
2024/04/05 06:14:56;;;;;;;1.10;0.60;;;18.30;91.40;;;;;;5016378;28;20108;-32
2024/04/05 06:17:26;;;;;;;1.80;0.55;;;18.40;91.40;;;;;;5015788;28;20033;-32
2024/04/05 06:19:56;;;;;;;0.73;0.50;;;18.40;91.40;;;;;;5016201;28;20026;-32
2024/04/05 06:22:23;;;;;;;1.20;0.70;;;18.40;91.40;;;;;;5015630;28;20450;-32
2024/04/05 06:24:52;;;;;;;1.35;0.55;;;18.40;91.40;;;;;;5016247;28;20080;-33
2024/04/05 06:27:18;;;;;;;0.65;0.50;;;18.40;91.30;;;;;;5015694;28;20026;-32
2024/04/05 06:29:55;;;;;;;0.98;0.65;;;18.40;91.30;;;;;;5015226;28;20050;-32
2024/04/05 06:32:22;;;;;;;0.68;0.40;;;18.40;91.30;;;;;;5015219;28;20017;-32
2024/04/05 06:34:48;;;;;;;1.30;0.43;;;18.40;91.30;;;;;;5015239;28;20029;-32
2024/04/05 06:37:14;;;;;;;1.02;0.70;;;18.40;91.30;;;;;;5015565;28;20021;-32
2024/04/05 06:39:41;;;;;;;0.50;0.30;;;18.40;91.30;;;;;;5015601;28;20106;-32
2024/04/05 06:42:10;;;;;;;0.60;0.40;;;18.40;91.20;;;;;;5031365;28;20030;-32
2024/04/05 06:44:39;;;;;;;0.63;0.45;;;18.40;91.20;;;;;;5015274;28;20040;-32
2024/04/05 06:47:05;;;;;;;0.60;0.38;;;18.50;91.20;;;;;;5015998;28;20034;-33
2024/04/05 06:49:34;;;;;;;0.75;0.50;;;18.50;91.20;;;;;;5015230;28;20384;-32
2024/04/05 06:52:05;;;;;;;0.85;0.50;;;18.50;91.20;;;;;;5015013;28;20385;-31
2024/04/05 06:54:32;;;;;;;0.52;0.40;;;18.50;91.20;;;;;;5015700;28;20022;-32
2024/04/05 06:56:58;;;;;;;1.00;0.40;;;18.50;91.10;;;;;;5015270;28;20396;-33
2024/04/05 06:59:23;;;;;;;0.85;0.50;;;18.50;91.10;;;;;;5015246;28;20029;-33
2024/04/05 07:01:53;;;;;;;0.80;0.50;;;18.50;91.10;;;;;;5015154;28;20037;-32
2024/04/05 07:04:25;;;;;;;0.68;0.40;;;18.60;91.10;;;;;;5015848;28;20038;-32
2024/04/05 07:06:50;;;;;;;0.90;0.60;;;18.60;91.10;;;;;;5015319;28;20021;-32
2024/04/05 07:09:20;;;;;;;0.70;0.40;;;18.60;91.10;;;;;;5013472;28;20053;-31
2024/04/05 07:11:46;;;;;;;0.52;0.40;;;18.70;91.10;;;;;;5014958;28;20025;-32
2024/04/05 07:14:12;;;;;;;0.80;0.50;;;18.70;91.00;;;;;;5015038;28;20097;-32
2024/04/05 07:16:37;;;;;;;0.60;0.30;;;18.70;91.00;;;;;;5013892;28;20115;-32
2024/04/05 07:19:03;;;;;;;0.55;0.40;;;18.70;91.00;;;;;;5014526;28;20489;-32
2024/04/05 07:21:29;;;;;;;0.63;0.40;;;18.70;90.90;;;;;;5014701;28;20029;-32
2024/04/05 07:23:55;;;;;;;1.08;0.43;;;18.70;90.90;;;;;;5014342;28;20022;-32
2024/04/05 07:26:21;;;;;;;0.80;0.60;;;18.80;90.90;;;;;;5014027;28;20396;-33
2024/04/05 07:28:46;;;;;;;0.40;0.32;;;18.80;90.90;;;;;;5014101;28;20025;-32
2024/04/05 07:31:14;;;;;;;0.60;0.30;;;18.80;90.80;;;;;;5014684;28;20088;-33
2024/04/05 07:33:40;;;;;;;0.82;0.40;;;18.80;90.80;;;;;;5014374;28;20423;-32
2024/04/05 07:36:06;;;;;;;0.85;0.30;;;18.90;90.80;;;;;;5014028;28;20017;-32
2024/04/05 07:38:32;;;;;;;0.75;0.43;;;18.90;90.80;;;;;;5014088;28;20026;-33
2024/04/05 07:41:06;;;;;;;1.00;0.50;;;18.90;90.80;;;;;;5013712;28;20025;-32
2024/04/05 07:43:32;;;;;;;0.77;0.40;;;18.90;90.70;;;;;;5013988;28;20532;-32
2024/04/05 07:45:58;;;;;;;0.57;0.40;;;18.90;90.70;;;;;;5014570;28;20026;-32
2024/04/05 07:48:25;;;;;;;1.42;0.70;;;19.00;90.70;;;;;;5013761;28;20034;-32
2024/04/05 07:50:51;;;;;;;0.70;0.40;;;19.00;90.70;;;;;;5013923;28;20029;-32
2024/04/05 07:53:17;;;;;;;0.80;0.40;;;19.00;90.60;;;;;;5013688;28;20029;-32
2024/04/05 07:55:43;;;;;;;1.00;0.50;;;19.00;90.60;;;;;;5014065;28;20022;-33
2024/04/05 07:58:09;;;;;;;0.75;0.50;;;19.10;90.60;;;;;;5014170;28;20392;-32
2024/04/05 08:00:36;;;;;;;1.00;0.60;;;19.10;90.50;;;;;;5013591;28;20037;-32
2024/04/05 08:03:03;;;;;;;1.02;0.40;;;19.20;90.90;;;;;;5013537;28;20033;-32
2024/04/05 08:05:29;;;;;;;0.60;0.40;;;19.20;90.50;;;;;;5013710;28;20022;-33
2024/04/05 08:07:56;;;;;;;2.03;0.60;;;19.30;90.50;;;;;;5013264;28;20080;-32
2024/04/05 08:10:22;;;;;;;1.38;0.70;;;19.30;90.50;;;;;;5013559;28;20046;-33
2024/04/05 08:12:50;;;;;;;2.15;0.80;;;19.20;90.70;;;;;;5013338;28;20018;-33
2024/04/05 08:15:15;;;;;;;2.20;0.80;;;19.30;90.80;;;;;;5013905;28;20026;-33
2024/04/05 08:17:42;;;;;;;3.75;1.00;;;19.40;90.80;;;;;;5013221;28;20124;-31
2024/04/05 08:20:08;;;;;;;2.80;0.70;;;19.50;90.80;;;;;;5013661;28;20030;-32
2024/04/05 08:22:33;;;;;;;3.42;0.73;;;19.60;90.70;;;;;;5013496;28;20032;-32
2024/04/05 08:25:00;;;;;;;2.38;1.08;;;19.60;90.60;;;;;;5013332;28;20504;-31
2024/04/05 08:27:28;;;;;;;4.28;1.00;;;19.70;90.60;;;;;;5012677;28;20025;-32
2024/04/05 08:29:54;;;;;;;2.25;0.80;;;19.80;90.80;;;;;;5012875;28;20073;-32
2024/04/05 08:32:19;;;;;;;1.77;0.80;;;19.80;90.40;;;;;;5013243;28;20053;-31
2024/04/05 08:34:45;;;;;;;3.25;0.80;;;19.90;90.30;;;;;;5013091;28;20089;-33
2024/04/05 08:37:10;;;;;;;1.90;0.80;;;20.00;90.30;;;;;;5013012;28;20030;-32
2024/04/05 08:39:37;;;;;;;2.58;0.80;;;20.00;90.20;;;;;;5012829;28;20213;-33
2024/04/05 08:42:13;;;;;;;18.80;1.85;;;20.10;90.10;;;;;;5012709;28;20034;-43
2024/04/05 08:44:42;;;;;;;8.25;1.40;;;20.00;90.60;;;;;;4970812;28;20038;-24
2024/04/05 08:47:11;;;;;;;10.25;1.63;;;18.60;92.90;;;;;;4992077;28;20029;-26
2024/04/05 08:49:37;;;;;;;8.73;1.65;;;17.60;94.30;;;;;;4973448;28;20125;-24
2024/04/05 08:52:04;;;;;;;5.10;1.58;;;16.90;95.70;;;;;;4979949;28;20501;-24
2024/04/05 08:54:32;;;;;;;3.42;1.10;;;16.50;96.90;;;;;;4981226;28;20025;-45
2024/04/05 08:57:01;;;;;;;4.13;1.40;;;16.50;97.00;;;;;;4973388;28;20034;-44
2024/04/05 08:59:33;;;;;;;4.13;1.30;;;16.80;96.70;;;;;;4978658;28;20118;-42
2024/04/05 09:02:02;;;;;;;6.18;1.67;;;17.10;96.00;;;;;;4984769;28;20109;-43
2024/04/05 09:04:29;;;;;;;4.03;1.38;;;17.30;95.50;;;;;;4977062;28;20125;-44
2024/04/05 09:06:55;;;;;;;6.55;1.55;;;17.50;95.10;;;;;;4880519;28;102415;-43
2024/04/05 09:09:32;;;;;;;4.80;1.27;;;17.70;94.80;;;;;;4998306;28;20022;-43
2024/04/05 09:12:03;;;;;;;6.85;1.00;;;17.90;94.70;;;;;;4974959;28;20092;-46
2024/04/05 09:14:36;;;;;;;5.00;1.17;;;17.90;94.90;;;;;;4998769;28;20057;-42
2024/04/05 09:17:22;;;;;;;3.70;1.15;;;18.00;94.90;;;;;;4992382;28;20038;-45
2024/04/05 09:19:48;;;;;;;7.57;1.38;;;18.00;94.80;;;;;;4983734;28;20042;-45
2024/04/05 09:22:23;;;;;;;4.22;1.17;;;17.90;95.10;;;;;;4991586;28;20023;-45
2024/04/05 09:25:00;;;;;;;4.55;1.27;;;17.80;95.50;;;;;;4992369;28;20026;-46
2024/04/05 09:27:25;;;;;;;6.07;1.30;;;17.90;95.20;;;;;;4991919;28;20027;-44
2024/04/05 09:30:03;;;;;;;3.80;1.38;;;17.90;95.60;;;;;;4991838;28;20022;-42
2024/04/05 09:32:28;;;;;;;5.90;1.25;;;17.80;95.80;;;;;;4992070;28;20034;-45
2024/04/05 09:34:59;;;;;;;7.35;1.85;;;18.00;95.80;;;;;;4992177;28;20042;-43
2024/04/05 09:37:27;;;;;;;4.82;1.40;;;18.00;95.70;;;;;;4991124;28;20465;-44
2024/04/05 09:39:53;;;;;;;5.00;1.13;;;18.10;95.70;;;;;;4992050;28;20030;-45
2024/04/05 09:42:22;;;;;;;6.53;1.20;;;18.20;95.70;;;;;;4995922;28;20034;-44
2024/04/05 09:44:50;;;;;;;2.80;1.10;;;18.30;95.60;;;;;;4996624;28;20030;-44
2024/04/05 09:47:19;;;;;;;5.95;1.00;;;18.30;95.50;;;;;;4996472;28;20031;-41
2024/04/05 09:49:45;;;;;;;5.00;1.20;;;18.20;95.50;;;;;;4996426;28;20022;-43
2024/04/05 09:52:14;;;;;;;4.57;1.00;;;18.10;95.30;;;;;;4996362;28;20057;-42
2024/04/05 09:54:40;;;;;;;3.22;1.27;;;18.20;95.30;;;;;;4996281;28;20026;-43
2024/04/05 09:57:13;;;;;;;3.20;1.25;;;18.40;95.30;;;;;;4996352;28;20019;-44
2024/04/05 09:59:41;;;;;;;4.43;1.10;;;18.40;95.20;;;;;;4995997;28;20050;-42
2024/04/05 10:02:09;;;;;;;6.22;1.30;;;18.50;95.20;;;;;;4996195;28;20389;-40
2024/04/05 10:04:38;;;;;;;3.85;1.10;;;18.40;95.20;;;;;;4996655;28;20038;-44
2024/04/05 10:07:08;;;;;;;3.15;1.20;;;18.50;95.50;;;;;;4996410;28;20088;-40
2024/04/05 10:09:35;;;;;;;4.47;1.20;;;18.50;95.20;;;;;;4995919;28;20022;-40
2024/04/05 10:12:14;;;;;;;4.28;1.30;;;18.50;95.20;;;;;;4995904;28;20033;-43
2024/04/05 10:14:41;;;;;;;2.58;1.00;;;18.50;95.20;;;;;;4996022;28;20026;-42
2024/04/05 10:17:11;;;;;;;6.55;1.10;;;18.50;95.20;;;;;;4995971;28;20092;-44
2024/04/05 10:19:39;;;;;;;1.10;0.63;;;18.50;95.20;;;;;;4995709;28;20034;-41
2024/04/05 10:22:19;;;;;;;4.00;0.95;;;18.50;95.20;;;;;;4995772;28;20084;-42
2024/04/05 10:24:44;;;;;;;3.47;1.40;;;18.50;95.10;;;;;;4995712;28;20023;-40
2024/04/05 10:27:22;;;;;;;2.33;0.90;;;18.50;95.20;;;;;;4995665;28;20034;-45
2024/04/05 10:30:00;;;;;;;1.80;1.00;;;18.60;95.10;;;;;;4994380;28;20409;-40
2024/04/05 10:32:27;;;;;;;2.83;0.82;;;18.60;95.10;;;;;;4995690;28;20600;-41
2024/04/05 10:34:52;;;;;;;3.25;0.80;;;18.70;95.00;;;;;;4995582;28;20026;-43
2024/04/05 10:37:18;;;;;;;2.58;1.02;;;18.70;95.00;;;;;;4995375;28;20026;-43
2024/04/05 10:39:43;;;;;;;2.90;1.00;;;18.70;95.10;;;;;;4995392;28;20056;-43
2024/04/05 10:42:10;;;;;;;1.60;0.73;;;18.70;95.00;;;;;;4995404;28;20022;-43
2024/04/05 10:44:36;;;;;;;1.77;0.80;;;18.70;94.90;;;;;;4995419;28;20037;-42
2024/04/05 10:47:02;;;;;;;2.03;0.98;;;18.70;95.00;;;;;;4995307;28;20030;-42
2024/04/05 10:49:27;;;;;;;1.58;0.63;;;18.70;95.00;;;;;;4995183;28;20065;-44
2024/04/05 10:51:59;;;;;;;2.42;0.80;;;18.60;94.90;;;;;;4994963;28;20030;-39
2024/04/05 10:54:24;;;;;;;2.92;0.70;;;18.70;95.00;;;;;;4995443;28;20037;-44
2024/04/05 10:56:50;;;;;;;3.03;1.00;;;18.60;95.00;;;;;;4995243;28;20109;-44
2024/04/05 10:59:19;;;;;;;3.60;0.80;;;18.60;95.10;;;;;;4995054;28;20054;-42
2024/04/05 11:01:47;;;;;;;2.40;0.80;;;18.50;95.10;;;;;;4995070;28;20027;-41
2024/04/05 11:04:13;;;;;;;1.52;0.60;;;18.50;95.10;;;;;;4994994;28;20389;-42
2024/04/05 11:06:40;;;;;;;1.65;0.65;;;18.50;95.10;;;;;;4995052;28;20027;-39
2024/04/05 11:09:07;;;;;;;4.25;0.80;;;18.50;95.20;;;;;;4994749;28;20057;-45
2024/04/05 11:11:33;;;;;;;2.03;0.90;;;18.50;95.20;;;;;;4994822;28;20069;-40
2024/04/05 11:14:04;;;;;;;2.85;0.70;;;18.50;95.50;;;;;;4995038;28;20026;-40
2024/04/05 11:16:35;;;;;;;1.98;0.60;;;18.40;95.20;;;;;;4994835;28;20046;-40
2024/04/05 11:19:05;;;;;;;2.20;0.77;;;18.40;95.20;;;;;;4994520;28;20038;-43
2024/04/05 11:21:31;;;;;;;1.80;0.70;;;18.40;95.20;;;;;;4994779;28;20692;-43
2024/04/05 11:23:57;;;;;;;2.83;0.98;;;18.40;95.30;;;;;;4994793;28;20034;-40
2024/04/05 11:26:31;;;;;;;1.23;0.55;;;18.40;95.30;;;;;;4994692;28;20389;-42
2024/04/05 11:29:00;;;;;;;1.17;0.70;;;18.40;95.30;;;;;;4994475;28;20045;-41
2024/04/05 11:31:27;;;;;;;1.50;0.80;;;18.40;95.20;;;;;;4994432;28;20117;-45
2024/04/05 11:33:53;;;;;;;2.05;0.65;;;18.50;95.30;;;;;;4994584;28;20026;-40
2024/04/05 11:36:20;;;;;;;1.95;0.80;;;18.50;95.50;;;;;;4994466;28;20034;-41
2024/04/05 11:38:49;;;;;;;1.70;0.75;;;18.50;95.10;;;;;;4994627;28;20396;-43
2024/04/05 11:41:18;;;;;;;1.98;0.60;;;18.60;95.10;;;;;;4994361;28;20031;-42
2024/04/05 11:43:44;;;;;;;2.65;0.75;;;18.60;95.00;;;;;;4994283;28;20458;-41
2024/04/05 11:46:10;;;;;;;2.92;0.70;;;18.70;95.00;;;;;;4994274;28;20029;-42
2024/04/05 11:48:35;;;;;;;1.95;0.57;;;18.70;94.90;;;;;;4994110;28;20027;-42
2024/04/05 11:51:01;;;;;;;2.60;0.70;;;18.70;94.90;;;;;;4994143;28;20061;-40
2024/04/05 11:53:27;;;;;;;3.08;0.70;;;18.70;94.90;;;;;;4994127;28;20032;-43
2024/04/05 11:55:54;;;;;;;4.13;0.70;;;18.80;94.90;;;;;;4994166;28;20500;-44
2024/04/05 11:58:19;;;;;;;1.23;0.60;;;18.80;94.90;;;;;;4993552;28;20030;-43
2024/04/05 12:00:50;;;;;;;2.20;0.88;;;18.80;94.80;;;;;;4994019;28;20026;-40
2024/04/05 12:03:16;;;;;;;1.63;0.60;;;18.80;94.80;;;;;;4993313;28;20022;-40
2024/04/05 12:05:43;;;;;;;2.40;0.60;;;18.90;94.80;;;;;;4993970;28;20409;-43
2024/04/05 12:08:09;;;;;;;1.15;0.57;;;18.90;94.70;;;;;;4993859;28;20023;-41
2024/04/05 12:10:35;;;;;;;1.52;0.55;;;18.90;94.70;;;;;;4993723;28;20026;-40
2024/04/05 12:13:01;;;;;;;1.20;0.50;;;18.90;94.60;;;;;;4993744;28;20156;-40
2024/04/05 12:15:27;;;;;;;1.92;0.57;;;18.90;94.70;;;;;;4993979;28;20073;-43
2024/04/05 12:17:53;;;;;;;1.45;0.50;;;18.90;94.60;;;;;;4993446;28;20031;-46
2024/04/05 12:20:19;;;;;;;1.60;0.60;;;18.90;94.60;;;;;;4993535;28;20041;-44
2024/04/05 12:22:45;;;;;;;1.77;0.80;;;18.90;94.70;;;;;;4993616;28;20033;-39
2024/04/05 12:25:11;;;;;;;1.80;0.50;;;18.80;94.70;;;;;;4993559;28;20026;-42
2024/04/05 12:27:37;;;;;;;1.13;0.60;;;18.80;94.70;;;;;;4991970;28;20034;-40
2024/04/05 12:30:08;;;;;;;1.52;0.60;;;18.80;94.70;;;;;;4993351;28;20109;-41
2024/04/05 12:32:35;;;;;;;1.17;0.60;;;18.70;94.80;;;;;;4993415;28;20508;-41
2024/04/05 12:35:00;;;;;;;1.23;0.50;;;18.70;94.80;;;;;;4993382;28;20029;-41
2024/04/05 12:37:27;;;;;;;0.70;0.55;;;18.70;94.90;;;;;;4993229;28;20030;-43
2024/04/05 12:39:55;;;;;;;1.08;0.40;;;18.70;94.90;;;;;;4993099;28;20022;-40
2024/04/05 12:42:21;;;;;;;1.27;0.50;;;18.60;95.00;;;;;;4993191;28;20040;-45
2024/04/05 12:44:48;;;;;;;2.83;0.60;;;18.60;95.00;;;;;;4993371;28;20034;-42